Time;durP1;ratioP1;P1;durP2;ratioP2;P2;SDS_P1;SDS_P2;PMS_P1;PMS_P2;Temp;Humidity;BMP_temperature;BMP_pressure;BME280_temperature;BME280_humidity;BME280_pressure;Samples;Min_cycle;Max_cycle;Signal;HPM_P1;HPM_P2
2024/01/17 00:00:19;;;;;;;;;;;;;;;8.03;35.31;99465.81;4457433;32;34187;-84
2024/01/17 00:02:47;;;;;;;;;;;;;;;7.82;35.68;99467.31;4460850;32;34790;-82
2024/01/17 00:05:15;;;;;;;;;;;;;;;7.56;36.08;99461.75;4447676;32;34265;-83
2024/01/17 00:07:42;;;;;;;;;;;;;;;7.90;35.73;99462.56;4464843;32;33346;-83
2024/01/17 00:10:09;;;;;;;;;;;;;;;7.94;35.98;99451.59;4472099;32;34696;-83
2024/01/17 00:12:37;;;;;;;;;;;;;;;7.93;36.39;99453.28;4473458;32;34943;-82
2024/01/17 00:15:04;;;;;;;;;;;;;;;7.94;36.78;99447.34;4472771;32;33795;-83
2024/01/17 00:17:32;;;;;;;;;;;;;;;8.10;36.76;99450.66;4469131;32;34221;-84
2024/01/17 00:19:59;;;;;;;;;;;;;;;8.21;36.57;99444.34;4475110;32;34832;-84
2024/01/17 00:22:27;;;;;;;;;;;;;;;7.87;37.49;99453.84;4477008;32;34864;-83
2024/01/17 00:24:54;;;;;;;;;;;;;;;7.95;37.29;99456.81;4474479;32;33918;-83
2024/01/17 00:27:24;;;;;;;;;;;;;;;7.92;37.43;99456.69;4473279;32;32791;-83
2024/01/17 00:29:57;;;;;;;;;;;;;;;7.81;37.65;99452.69;4469872;32;34150;-82
2024/01/17 00:32:26;;;;;;;;;;;;;;;7.92;37.38;99446.38;4472920;32;33866;-81
2024/01/17 00:34:54;;;;;;;;;;;;;;;7.99;37.16;99443.25;4470561;32;34372;-85
2024/01/17 00:37:21;;;;;;;;;;;;;;;7.82;37.35;99454.44;4458508;32;33206;-84
2024/01/17 00:39:49;;;;;;;;;;;;;;;7.73;37.57;99443.69;4455120;32;33852;-84
2024/01/17 00:42:16;;;;;;;;;;;;;;;8.01;37.02;99440.75;4471220;32;33826;-83
2024/01/17 00:44:45;;;;;;;;;;;;;;;7.95;37.08;99449.09;4462136;32;33687;-85
2024/01/17 00:47:12;;;;;;;;;;;;;;;7.67;37.66;99445.13;4457406;32;33897;-81
2024/01/17 00:49:39;;;;;;;;;;;;;;;7.84;37.43;99439.94;4475409;32;33955;-82
2024/01/17 00:52:08;;;;;;;;;;;;;;;7.82;37.42;99426.06;4469190;32;34113;-82
2024/01/17 00:54:35;;;;;;;;;;;;;;;7.78;37.25;99427.59;4467540;32;34151;-85
2024/01/17 00:57:03;;;;;;;;;;;;;;;7.88;37.04;99429.84;4457481;32;32998;-83
2024/01/17 00:59:31;;;;;;;;;;;;;;;7.96;36.77;99427.66;4457732;32;34110;-85
2024/01/17 01:01:59;;;;;;;;;;;;;;;7.70;37.06;99430.63;4459736;32;32956;-82
2024/01/17 01:04:26;;;;;;;;;;;;;;;7.33;37.92;99431.34;4470096;32;34094;-85
2024/01/17 01:06:53;;;;;;;;;;;;;;;7.34;38.34;99435.66;4470215;32;33998;-84
2024/01/17 01:09:21;;;;;;;;;;;;;;;7.88;37.30;99432.44;4463337;32;34254;-82
2024/01/17 01:11:48;;;;;;;;;;;;;;;7.79;37.32;99424.25;4472705;32;35288;-82
2024/01/17 01:14:15;;;;;;;;;;;;;;;7.41;38.28;99438.66;4473232;32;34201;-84
2024/01/17 01:16:43;;;;;;;;;;;;;;;7.16;38.56;99436.50;4474884;32;33014;-83
2024/01/17 01:19:11;;;;;;;;;;;;;;;7.57;37.55;99442.91;4460841;32;34041;-82
2024/01/17 01:21:38;;;;;;;;;;;;;;;7.68;36.22;99436.59;4477805;32;33309;-85
2024/01/17 01:24:06;;;;;;;;;;;;;;;7.52;36.19;99428.03;4472559;32;34869;-86
2024/01/17 01:26:36;;;;;;;;;;;;;;;7.03;36.76;99426.34;4466647;32;33374;-84
2024/01/17 01:29:04;;;;;;;;;;;;;;;7.05;36.75;99429.87;4475280;32;33795;-85
2024/01/17 01:31:32;;;;;;;;;;;;;;;6.95;37.20;99428.50;4469543;32;35028;-84
2024/01/17 01:33:59;;;;;;;;;;;;;;;6.78;37.33;99426.72;4472779;32;34275;-84
2024/01/17 01:36:27;;;;;;;;;;;;;;;6.74;37.57;99418.00;4482005;32;34051;-85
2024/01/17 01:38:55;;;;;;;;;;;;;;;7.00;37.28;99413.31;4472422;32;34081;-85
2024/01/17 01:41:22;;;;;;;;;;;;;;;7.04;37.11;99413.56;4472366;32;35002;-83
2024/01/17 01:43:49;;;;;;;;;;;;;;;6.95;37.51;99396.75;4470069;32;32781;-84
2024/01/17 01:46:17;;;;;;;;;;;;;;;7.02;37.13;99404.88;4474493;32;33342;-82
2024/01/17 01:48:45;;;;;;;;;;;;;;;7.11;36.63;99393.25;4459045;32;34210;-84
2024/01/17 01:51:12;;;;;;;;;;;;;;;6.88;37.37;99395.53;4468924;32;35084;-84
2024/01/17 01:53:42;;;;;;;;;;;;;;;6.52;38.05;99389.31;4469939;32;34040;-85
2024/01/17 01:56:10;;;;;;;;;;;;;;;6.46;38.59;99385.59;4472446;32;33587;-83
2024/01/17 01:58:38;;;;;;;;;;;;;;;6.74;38.49;99376.81;4476130;32;33805;-83
2024/01/17 02:01:06;;;;;;;;;;;;;;;7.02;38.02;99357.62;4456908;32;34889;-83
2024/01/17 02:03:34;;;;;;;;;;;;;;;6.83;38.28;99366.09;4472103;32;33609;-85
2024/01/17 02:06:01;;;;;;;;;;;;;;;6.95;38.17;99360.69;4465128;32;32756;-83
2024/01/17 02:08:28;;;;;;;;;;;;;;;6.84;38.58;99358.44;4456999;32;33582;-83
2024/01/17 02:10:56;;;;;;;;;;;;;;;6.87;38.63;99355.13;4473247;32;34837;-83
2024/01/17 02:13:23;;;;;;;;;;;;;;;7.07;38.46;99351.03;4467854;32;32511;-84
2024/01/17 02:15:51;;;;;;;;;;;;;;;7.02;38.71;99347.34;4479239;32;33238;-83
2024/01/17 02:18:19;;;;;;;;;;;;;;;7.16;38.66;99346.34;4470260;32;33722;-85
2024/01/17 02:20:46;;;;;;;;;;;;;;;7.00;39.12;99349.81;4466703;32;33746;-83
2024/01/17 02:23:22;;;;;;;;;;;;;;;7.19;39.10;99351.66;4443910;32;32572;-83
2024/01/17 02:25:50;;;;;;;;;;;;;;;7.36;38.96;99341.31;4474046;32;33562;-82
2024/01/17 02:28:18;;;;;;;;;;;;;;;7.28;39.31;99341.81;4476321;32;33822;-84
2024/01/17 02:30:45;;;;;;;;;;;;;;;7.37;39.41;99337.94;4464876;32;34905;-83
2024/01/17 02:33:13;;;;;;;;;;;;;;;7.39;39.32;99333.75;4472064;32;34037;-84
2024/01/17 02:35:40;;;;;;;;;;;;;;;7.56;38.93;99322.56;4469186;32;33466;-82
2024/01/17 02:38:08;;;;;;;;;;;;;;;7.74;38.68;99329.44;4461397;32;33801;-83
2024/01/17 02:40:37;;;;;;;;;;;;;;;7.92;38.26;99326.84;4458645;32;32883;-83
2024/01/17 02:43:04;;;;;;;;;;;;;;;7.79;38.34;99330.53;4477833;32;33786;-84
2024/01/17 02:45:32;;;;;;;;;;;;;;;7.75;38.49;99334.66;4465198;32;33964;-85
2024/01/17 02:47:59;;;;;;;;;;;;;;;7.74;38.57;99330.31;4457887;32;34748;-85
2024/01/17 02:50:28;;;;;;;;;;;;;;;7.93;38.41;99336.34;4480669;32;34900;-84
2024/01/17 02:52:55;;;;;;;;;;;;;;;8.05;38.24;99335.25;4465444;32;33860;-82
2024/01/17 02:55:23;;;;;;;;;;;;;;;7.91;38.43;99331.13;4458671;32;33276;-85
2024/01/17 02:57:51;;;;;;;;;;;;;;;7.98;38.26;99333.19;4459071;32;33810;-85
2024/01/17 03:00:18;;;;;;;;;;;;;;;8.24;37.85;99334.38;4466571;32;34131;-83
2024/01/17 03:02:46;;;;;;;;;;;;;;;8.05;38.24;99335.25;4465698;32;34109;-83
2024/01/17 03:05:14;;;;;;;;;;;;;;;8.15;38.05;99331.41;4441850;32;33313;-86
2024/01/17 03:07:41;;;;;;;;;;;;;;;8.05;38.13;99335.25;4467216;32;33841;-83
2024/01/17 03:10:12;;;;;;;;;;;;;;;8.15;38.10;99335.66;4471676;32;33880;-84
2024/01/17 03:12:40;;;;;;;;;;;;;;;8.29;37.63;99329.47;4439838;32;32005;-86
2024/01/17 03:15:08;;;;;;;;;;;;;;;8.24;37.70;99329.22;4476603;32;33259;-84
2024/01/17 03:17:36;;;;;;;;;;;;;;;8.34;37.49;99333.13;4475782;32;34102;-84
2024/01/17 03:20:05;;;;;;;;;;;;;;;8.24;37.63;99325.78;4478740;32;33902;-83
2024/01/17 03:22:37;;;;;;;;;;;;;;;8.36;37.36;99321.16;4476718;32;33650;-85
2024/01/17 03:25:04;;;;;;;;;;;;;;;8.48;37.17;99314.84;4475695;32;33962;-83
2024/01/17 03:27:31;;;;;;;;;;;;;;;8.51;37.06;99305.53;4469410;32;34875;-85
2024/01/17 03:29:59;;;;;;;;;;;;;;;8.28;37.34;99296.72;4470272;32;33603;-84
2024/01/17 03:32:27;;;;;;;;;;;;;;;8.56;36.84;99295.44;4469640;32;34381;-85
2024/01/17 03:34:55;;;;;;;;;;;;;;;8.46;37.04;99296.72;4467801;32;33196;-84
2024/01/17 03:37:23;;;;;;;;;;;;;;;8.43;36.95;99294.00;4455237;32;32741;-84
2024/01/17 03:39:51;;;;;;;;;;;;;;;8.60;36.49;99299.91;4466523;32;34296;-84
2024/01/17 03:42:18;;;;;;;;;;;;;;;8.38;36.81;99283.44;4460980;32;33950;-83
2024/01/17 03:44:45;;;;;;;;;;;;;;;8.37;36.82;99275.63;4468010;32;33257;-83
2024/01/17 03:47:13;;;;;;;;;;;;;;;8.15;37.28;99268.59;4454483;32;32730;-84
2024/01/17 03:49:41;;;;;;;;;;;;;;;8.21;37.30;99261.16;4468072;32;34037;-83
2024/01/17 03:52:08;;;;;;;;;;;;;;;8.30;37.09;99253.78;4470938;32;32806;-83
2024/01/17 03:54:38;;;;;;;;;;;;;;;8.27;37.25;99253.69;4472657;32;34160;-82
2024/01/17 03:57:05;;;;;;;;;;;;;;;8.02;37.75;99262.88;4472798;32;33862;-84
2024/01/17 03:59:33;;;;;;;;;;;;;;;8.00;37.61;99263.63;4462751;32;33784;-85
2024/01/17 04:02:00;;;;;;;;;;;;;;;8.10;37.29;99270.09;4452463;32;34214;-85
2024/01/17 04:04:29;;;;;;;;;;;;;;;7.72;38.25;99266.59;4463445;32;33250;-84
2024/01/17 04:06:57;;;;;;;;;;;;;;;7.43;38.61;99260.94;4473916;32;34930;-84
2024/01/17 04:09:24;;;;;;;;;;;;;;;7.89;37.79;99257.97;4466751;32;33467;-85
2024/01/17 04:11:52;;;;;;;;;;;;;;;7.81;37.94;99267.03;4470487;32;34046;-83
2024/01/17 04:14:19;;;;;;;;;;;;;;;7.68;38.20;99261.28;4453381;32;32481;-85
2024/01/17 04:16:47;;;;;;;;;;;;;;;7.65;38.34;99250.84;4454928;32;32295;-84
2024/01/17 04:19:14;;;;;;;;;;;;;;;7.72;38.25;99245.97;4455995;32;34983;-84
2024/01/17 04:21:42;;;;;;;;;;;;;;;7.97;37.86;99243.72;4453680;32;32411;-83
2024/01/17 04:24:09;;;;;;;;;;;;;;;7.54;38.44;99233.97;4448831;32;31989;-84
2024/01/17 04:26:40;;;;;;;;;;;;;;;7.93;37.58;99221.19;4457477;32;33848;-83
2024/01/17 04:29:08;;;;;;;;;;;;;;;7.86;37.78;99213.97;4438138;32;35353;-87
2024/01/17 04:31:36;;;;;;;;;;;;;;;7.50;38.37;99214.03;4465975;32;33868;-84
2024/01/17 04:34:03;;;;;;;;;;;;;;;7.71;38.01;99208.09;4455403;32;33037;-84
2024/01/17 04:36:31;;;;;;;;;;;;;;;7.72;38.03;99209.88;4473680;32;33035;-84
2024/01/17 04:39:02;;;;;;;;;;;;;;;7.72;37.97;99197.00;4475131;32;34874;-82
2024/01/17 04:41:30;;;;;;;;;;;;;;;7.32;39.04;99197.69;4468123;32;33544;-84
2024/01/17 04:43:58;;;;;;;;;;;;;;;7.07;39.47;99196.53;4461311;32;33984;-83
2024/01/17 04:46:25;;;;;;;;;;;;;;;6.83;39.94;99201.34;4471674;32;34022;-81
2024/01/17 04:48:52;;;;;;;;;;;;;;;6.96;39.60;99197.69;4463317;32;33882;-83
2024/01/17 04:51:22;;;;;;;;;;;;;;;7.42;39.14;99205.06;4474100;32;34250;-81
2024/01/17 04:53:50;;;;;;;;;;;;;;;7.03;39.84;99197.16;4473706;32;34133;-82
2024/01/17 04:56:17;;;;;;;;;;;;;;;7.26;39.20;99206.91;4467129;32;34590;-82
2024/01/17 04:58:45;;;;;;;;;;;;;;;7.18;39.67;99213.34;4473797;32;34347;-83
2024/01/17 05:01:12;;;;;;;;;;;;;;;7.31;39.24;99206.25;4474042;32;34590;-82
2024/01/17 05:03:43;;;;;;;;;;;;;;;7.45;38.94;99205.19;4463687;32;32905;-81
2024/01/17 05:06:10;;;;;;;;;;;;;;;6.93;39.85;99207.81;4473691;32;33109;-85
2024/01/17 05:08:38;;;;;;;;;;;;;;;7.18;39.39;99197.91;4466595;32;33750;-84
2024/01/17 05:11:05;;;;;;;;;;;;;;;7.14;39.76;99193.41;4467604;32;34308;-83
2024/01/17 05:13:33;;;;;;;;;;;;;;;7.57;39.05;99186.84;4477280;32;33437;-81
2024/01/17 05:16:01;;;;;;;;;;;;;;;7.49;38.92;99189.06;4467429;32;33286;-83
2024/01/17 05:18:28;;;;;;;;;;;;;;;7.77;38.44;99200.69;4471979;32;34890;-82
2024/01/17 05:20:56;;;;;;;;;;;;;;;7.24;39.37;99202.47;4471001;32;34273;-81
2024/01/17 05:23:23;;;;;;;;;;;;;;;6.93;40.14;99187.22;4468229;32;33935;-84
2024/01/17 05:25:51;;;;;;;;;;;;;;;7.00;40.14;99194.44;4468908;32;34027;-84
2024/01/17 05:28:18;;;;;;;;;;;;;;;7.26;39.75;99188.88;4464220;32;34903;-83
2024/01/17 05:30:45;;;;;;;;;;;;;;;7.18;39.79;99197.91;4442246;32;34838;-81
2024/01/17 05:33:13;;;;;;;;;;;;;;;7.08;39.71;99188.84;4467878;32;32965;-82
2024/01/17 05:35:41;;;;;;;;;;;;;;;6.71;40.45;99196.47;4470489;32;34359;-82
2024/01/17 05:38:08;;;;;;;;;;;;;;;7.07;40.17;99192.25;4472818;32;33942;-81
2024/01/17 05:40:36;;;;;;;;;;;;;;;7.35;39.16;99200.41;4471862;32;34105;-82
2024/01/17 05:43:04;;;;;;;;;;;;;;;6.85;40.09;99192.87;4468218;32;32646;-81
2024/01/17 05:45:31;;;;;;;;;;;;;;;6.92;40.66;99180.31;4472283;32;33482;-83
2024/01/17 05:47:59;;;;;;;;;;;;;;;6.34;41.57;99173.13;4472806;32;34665;-81
2024/01/17 05:50:26;;;;;;;;;;;;;;;6.53;41.16;99185.22;4472313;32;34255;-84
2024/01/17 05:52:53;;;;;;;;;;;;;;;7.38;39.51;99182.50;4477951;32;32828;-83
2024/01/17 05:55:21;;;;;;;;;;;;;;;7.25;39.86;99187.09;4474367;32;33421;-84
2024/01/17 05:57:50;;;;;;;;;;;;;;;7.24;40.00;99185.34;4468623;32;33841;-80
2024/01/17 06:00:18;;;;;;;;;;;;;;;7.18;40.09;99190.16;4479968;32;35097;-84
2024/01/17 06:02:46;;;;;;;;;;;;;;;7.19;40.18;99168.78;4483483;32;33748;-84
2024/01/17 06:05:15;;;;;;;;;;;;;;;7.59;39.31;99175.81;4470391;32;33357;-84
2024/01/17 06:07:44;;;;;;;;;;;;;;;6.80;40.67;99166.03;4469166;32;33484;-83
2024/01/17 06:10:13;;;;;;;;;;;;;;;7.35;39.79;99161.78;4468365;32;33119;-84
2024/01/17 06:12:41;;;;;;;;;;;;;;;6.79;41.03;99177.13;4473572;32;32137;-83
2024/01/17 06:15:09;;;;;;;;;;;;;;;6.98;40.86;99175.47;4466202;32;33822;-84
2024/01/17 06:17:37;;;;;;;;;;;;;;;7.25;40.46;99166.47;4479057;32;33593;-83
2024/01/17 06:20:05;;;;;;;;;;;;;;;6.88;41.15;99159.56;4476555;32;34093;-82
2024/01/17 06:22:33;;;;;;;;;;;;;;;7.30;40.47;99161.53;4476493;32;33575;-83
2024/01/17 06:25:00;;;;;;;;;;;;;;;7.47;40.24;99157.19;4470431;32;34842;-83
2024/01/17 06:27:27;;;;;;;;;;;;;;;7.12;40.78;99166.69;4472628;32;34586;-84
2024/01/17 06:29:55;;;;;;;;;;;;;;;7.44;40.44;99167.38;4474585;32;35128;-81
2024/01/17 06:32:22;;;;;;;;;;;;;;;7.21;40.90;99172.31;4477548;32;33432;-83
2024/01/17 06:34:50;;;;;;;;;;;;;;;7.54;40.44;99163.53;4462589;32;32040;-83
2024/01/17 06:37:17;;;;;;;;;;;;;;;8.00;39.77;99161.34;4471731;32;34185;-81
2024/01/17 06:39:45;;;;;;;;;;;;;;;8.02;39.34;99151.97;4478554;32;34521;-80
2024/01/17 06:42:16;;;;;;;;;;;;;;;8.10;39.09;99154.00;4473962;32;32857;-81
2024/01/17 06:44:43;;;;;;;;;;;;;;;7.94;39.55;99176.53;4474795;32;34378;-82
2024/01/17 06:47:11;;;;;;;;;;;;;;;7.89;39.79;99172.84;4475672;32;34432;-81
2024/01/17 06:49:40;;;;;;;;;;;;;;;8.00;39.42;99188.84;4465341;32;33536;-81
2024/01/17 06:52:07;;;;;;;;;;;;;;;7.93;39.62;99179.91;4482495;32;34181;-81
2024/01/17 06:54:34;;;;;;;;;;;;;;;7.68;40.21;99168.47;4464578;32;33517;-81
2024/01/17 06:57:02;;;;;;;;;;;;;;;7.60;40.16;99162.09;4474720;32;34136;-82
2024/01/17 06:59:32;;;;;;;;;;;;;;;7.81;39.86;99149.31;4469465;32;34737;-83
2024/01/17 07:02:00;;;;;;;;;;;;;;;7.85;39.87;99163.22;4473839;32;34254;-82
2024/01/17 07:04:27;;;;;;;;;;;;;;;7.58;40.39;99156.00;4477499;32;34177;-82
2024/01/17 07:06:54;;;;;;;;;;;;;;;8.03;39.60;99151.12;4476624;32;34860;-82
2024/01/17 07:09:23;;;;;;;;;;;;;;;8.51;38.97;99139.47;4455324;32;33432;-82
2024/01/17 07:11:50;;;;;;;;;;;;;;;8.46;38.81;99136.69;4472791;32;34175;-81
2024/01/17 07:14:17;;;;;;;;;;;;;;;8.52;38.88;99125.72;4472326;32;34776;-82
2024/01/17 07:16:45;;;;;;;;;;;;;;;7.84;39.75;99140.81;4478894;32;34345;-83
2024/01/17 07:19:12;;;;;;;;;;;;;;;7.99;39.78;99128.59;4474933;32;34035;-82
2024/01/17 07:21:42;;;;;;;;;;;;;;;8.13;39.43;99125.75;4473510;32;33569;-82
2024/01/17 07:24:10;;;;;;;;;;;;;;;8.39;39.21;99109.69;4466100;32;34308;-82
2024/01/17 07:26:38;;;;;;;;;;;;;;;8.62;38.66;99107.25;4472741;32;34762;-82
2024/01/17 07:29:05;;;;;;;;;;;;;;;8.46;38.66;99116.06;4474618;32;34789;-81
2024/01/17 07:31:32;;;;;;;;;;;;;;;8.38;38.90;99114.78;4477529;32;33482;-82
2024/01/17 07:34:00;;;;;;;;;;;;;;;7.97;39.59;99117.34;4478621;32;34385;-82
2024/01/17 07:36:27;;;;;;;;;;;;;;;8.45;38.86;99115.16;4478593;32;34035;-82
2024/01/17 07:38:55;;;;;;;;;;;;;;;8.02;39.64;99118.44;4473126;32;34190;-82
2024/01/17 07:41:22;;;;;;;;;;;;;;;8.32;39.42;99117.97;4473258;32;34033;-82
2024/01/17 07:43:50;;;;;;;;;;;;;;;8.61;38.71;99113.19;4478569;32;33888;-82
2024/01/17 07:46:17;;;;;;;;;;;;;;;8.43;39.07;99106.44;4460926;32;33891;-82
2024/01/17 07:48:44;;;;;;;;;;;;;;;8.69;38.66;99106.66;4469191;32;33951;-82
2024/01/17 07:51:13;;;;;;;;;;;;;;;8.13;38.91;99099.97;4476258;32;32723;-82
2024/01/17 07:53:41;;;;;;;;;;;;;;;8.63;38.36;99093.50;4476188;32;34139;-82
2024/01/17 07:56:09;;;;;;;;;;;;;;;8.11;39.44;99091.28;4451399;32;920120;-82
2024/01/17 07:58:36;;;;;;;;;;;;;;;8.25;39.38;99097.91;4460843;32;34681;-82
2024/01/17 08:01:05;;;;;;;;;;;;;;;8.20;39.24;99102.88;4473688;32;34100;-83
2024/01/17 08:03:33;;;;;;;;;;;;;;;8.35;39.15;99097.47;4466832;32;34806;-84
2024/01/17 08:06:00;;;;;;;;;;;;;;;8.18;39.23;99104.50;4462466;32;34048;-80
2024/01/17 08:08:28;;;;;;;;;;;;;;;7.99;39.94;99102.81;4474214;32;34596;-81
2024/01/17 08:10:56;;;;;;;;;;;;;;;8.27;39.67;99098.88;4476008;32;33883;-82
2024/01/17 08:13:23;;;;;;;;;;;;;;;8.22;39.49;99106.38;4460085;32;32529;-81
2024/01/17 08:15:50;;;;;;;;;;;;;;;8.11;39.42;99111.91;4473565;32;34721;-82
2024/01/17 08:18:18;;;;;;;;;;;;;;;7.86;40.33;99095.34;4480003;32;34964;-82
2024/01/17 08:20:46;;;;;;;;;;;;;;;8.11;40.08;99102.47;4472814;32;33592;-83
2024/01/17 08:23:13;;;;;;;;;;;;;;;8.23;39.73;99102.13;4473220;32;33584;-82
2024/01/17 08:25:41;;;;;;;;;;;;;;;8.70;38.59;99098.09;4472922;32;34159;-82
2024/01/17 08:28:08;;;;;;;;;;;;;;;8.02;39.92;99100.38;4480058;32;34095;-80
2024/01/17 08:30:35;;;;;;;;;;;;;;;8.45;39.07;99099.66;4471964;32;34153;-82
2024/01/17 08:33:03;;;;;;;;;;;;;;;8.21;39.66;99103.78;4480896;32;33864;-82
2024/01/17 08:35:31;;;;;;;;;;;;;;;8.40;39.19;99085.66;4459046;32;34272;-82
2024/01/17 08:37:58;;;;;;;;;;;;;;;8.34;39.56;99095.72;4454919;32;33717;-81
2024/01/17 08:40:26;;;;;;;;;;;;;;;8.41;39.38;99092.59;4466488;32;33210;-82
2024/01/17 08:42:54;;;;;;;;;;;;;;;8.73;38.60;99090.50;4468716;32;33843;-82
2024/01/17 08:45:21;;;;;;;;;;;;;;;8.93;38.61;99090.41;4469157;32;34236;-81
2024/01/17 08:47:48;;;;;;;;;;;;;;;8.19;39.77;99084.72;4468990;32;33886;-81
2024/01/17 08:50:16;;;;;;;;;;;;;;;8.65;39.26;99086.69;4455933;32;33244;-81
2024/01/17 08:52:43;;;;;;;;;;;;;;;8.63;39.69;99080.59;4480180;32;33604;-81
2024/01/17 08:55:11;;;;;;;;;;;;;;;8.38;39.84;99076.06;4468806;32;34190;-82
2024/01/17 08:57:39;;;;;;;;;;;;;;;8.83;39.32;99068.50;4467143;32;34200;-82
2024/01/17 09:00:08;;;;;;;;;;;;;;;8.75;39.67;99075.94;4481106;32;33443;-82
2024/01/17 09:02:36;;;;;;;;;;;;;;;8.60;39.73;99077.91;4467380;32;34091;-81
2024/01/17 09:05:04;;;;;;;;;;;;;;;8.82;39.56;99069.31;4474600;32;33224;-81
2024/01/17 09:07:31;;;;;;;;;;;;;;;8.56;39.86;99076.88;4481201;32;34850;-82
2024/01/17 09:10:00;;;;;;;;;;;;;;;8.65;39.63;99073.78;4471028;32;33192;-81
2024/01/17 09:12:29;;;;;;;;;;;;;;;8.90;39.20;99048.94;4473539;32;34680;-84
2024/01/17 09:14:56;;;;;;;;;;;;;;;8.83;39.55;99048.72;4477448;32;34006;-82
2024/01/17 09:17:23;;;;;;;;;;;;;;;8.26;40.68;99045.47;4461229;32;32589;-82
2024/01/17 09:19:51;;;;;;;;;;;;;;;8.13;41.26;99054.44;4472832;32;33537;-80
2024/01/17 09:22:19;;;;;;;;;;;;;;;9.06;39.64;99043.56;4469392;32;34106;-81
2024/01/17 09:24:47;;;;;;;;;;;;;;;8.85;39.86;99028.13;4475230;32;34207;-82
2024/01/17 09:27:14;;;;;;;;;;;;;;;8.87;40.07;99016.16;4472373;32;34197;-82
2024/01/17 09:29:41;;;;;;;;;;;;;;;8.92;40.05;99009.44;4465661;32;33012;-82
2024/01/17 09:32:09;;;;;;;;;;;;;;;8.98;40.31;99021.69;4470957;32;33703;-82
2024/01/17 09:34:39;;;;;;;;;;;;;;;8.69;40.95;99013.69;4472497;32;34540;-81
2024/01/17 09:37:07;;;;;;;;;;;;;;;8.92;40.86;99019.75;4465721;32;34123;-81
2024/01/17 09:39:35;;;;;;;;;;;;;;;8.77;40.68;99009.75;4470167;31;31021;-81
2024/01/17 09:42:02;;;;;;;;;;;;;;;8.61;41.08;99003.06;4479067;32;32755;-82
2024/01/17 09:44:30;;;;;;;;;;;;;;;8.91;40.76;98991.31;4460265;32;34159;-82
2024/01/17 09:47:00;;;;;;;;;;;;;;;8.50;41.53;98993.13;4464831;32;34245;-82
2024/01/17 09:49:28;;;;;;;;;;;;;;;8.76;41.41;98982.13;4458285;32;33343;-80
2024/01/17 09:51:55;;;;;;;;;;;;;;;8.15;57.98;98975.41;4471670;32;33742;-81
2024/01/17 09:54:26;;;;;;;;;;;;;;;8.98;44.97;98954.53;4448897;32;34432;-80
2024/01/17 09:56:55;;;;;;;;;;;;;;;8.73;42.88;98939.81;4466122;32;34520;-82
2024/01/17 09:59:27;;;;;;;;;;;;;;;8.65;42.42;98937.84;4456993;32;33330;-83
2024/01/17 10:01:55;;;;;;;;;;;;;;;8.42;43.40;98930.91;4464917;32;34050;-81
2024/01/17 10:04:24;;;;;;;;;;;;;;;8.80;42.79;98922.03;4476760;32;33732;-83
2024/01/17 10:06:52;;;;;;;;;;;;;;;9.15;42.08;98921.59;4459949;32;33560;-82
2024/01/17 10:09:22;;;;;;;;;;;;;;;9.16;41.26;98919.06;4452516;32;33937;-79
2024/01/17 10:11:50;;;;;;;;;;;;;;;8.61;42.35;98919.59;4464669;32;33092;-82
2024/01/17 10:14:23;;;;;;;;;;;;;;;8.66;42.44;98918.94;4477902;32;34445;-81
2024/01/17 10:16:51;;;;;;;;;;;;;;;8.72;42.28;98913.13;4463426;32;34034;-81
2024/01/17 10:19:18;;;;;;;;;;;;;;;8.32;43.08;98906.41;4474538;32;33816;-82
2024/01/17 10:21:46;;;;;;;;;;;;;;;8.69;42.69;98876.84;4480672;32;33800;-82
2024/01/17 10:24:15;;;;;;;;;;;;;;;8.59;42.99;98873.06;4457941;32;33810;-81
2024/01/17 10:26:44;;;;;;;;;;;;;;;8.88;42.82;98882.72;4459111;32;34121;-82
2024/01/17 10:29:11;;;;;;;;;;;;;;;9.14;42.21;98876.78;4464628;32;34069;-83
2024/01/17 10:31:39;;;;;;;;;;;;;;;9.35;41.67;98868.91;4462885;32;33836;-83
2024/01/17 10:34:07;;;;;;;;;;;;;;;8.66;43.48;98866.44;4469609;32;33876;-82
2024/01/17 10:36:38;;;;;;;;;;;;;;;9.18;42.36;98858.00;4479251;32;33935;-82
2024/01/17 10:39:06;;;;;;;;;;;;;;;9.07;42.45;98859.31;4471425;32;33312;-82
2024/01/17 10:41:35;;;;;;;;;;;;;;;8.80;42.96;98854.91;4472591;32;33699;-81
2024/01/17 10:44:04;;;;;;;;;;;;;;;8.71;43.20;98854.59;4483914;32;34228;-82
2024/01/17 10:46:33;;;;;;;;;;;;;;;9.02;42.21;98835.00;4477269;32;33565;-82
2024/01/17 10:49:00;;;;;;;;;;;;;;;8.86;42.74;98843.91;4459842;32;34513;-83
2024/01/17 10:51:28;;;;;;;;;;;;;;;8.73;42.77;98823.62;4470053;32;33705;-82
2024/01/17 10:53:56;;;;;;;;;;;;;;;8.82;42.78;98819.69;4473448;32;34197;-81
2024/01/17 10:56:25;;;;;;;;;;;;;;;8.70;42.92;98811.50;4468131;32;34357;-81
2024/01/17 10:58:53;;;;;;;;;;;;;;;8.70;43.11;98806.34;4464572;32;33405;-81
2024/01/17 11:01:25;;;;;;;;;;;;;;;9.01;42.81;98802.28;4481721;32;34142;-82
2024/01/17 11:03:52;;;;;;;;;;;;;;;8.51;42.91;98785.84;4473863;32;34201;-82
2024/01/17 11:06:20;;;;;;;;;;;;;;;8.97;43.16;98798.69;4469079;32;34017;-81
2024/01/17 11:08:48;;;;;;;;;;;;;;;9.25;44.08;98782.44;4469426;32;33449;-83
2024/01/17 11:11:16;;;;;;;;;;;;;;;9.31;42.12;98770.53;4463567;32;34876;-82
2024/01/17 11:13:44;;;;;;;;;;;;;;;8.82;43.25;98767.16;4470664;32;33489;-82
2024/01/17 11:16:11;;;;;;;;;;;;;;;8.78;43.40;98755.84;4460820;32;34742;-81
2024/01/17 11:18:40;;;;;;;;;;;;;;;9.28;42.37;98744.63;4469508;32;33438;-82
2024/01/17 11:21:09;;;;;;;;;;;;;;;9.04;42.96;98742.97;4477743;32;34837;-79
2024/01/17 11:23:39;;;;;;;;;;;;;;;8.40;44.15;98747.59;4449851;32;33396;-80
2024/01/17 11:26:30;;;;;;;;;;;;;;;8.55;44.28;98738.69;4464761;32;33438;-80
2024/01/17 11:29:05;;;;;;;;;;;;;;;9.21;42.90;98734.09;4457375;32;33375;-81
2024/01/17 11:31:41;;;;;;;;;;;;;;;8.83;43.72;98741.41;4458622;32;34703;-81
2024/01/17 11:34:08;;;;;;;;;;;;;;;8.84;43.56;98717.31;4478310;32;35421;-82
2024/01/17 11:36:44;;;;;;;;;;;;;;;9.17;43.03;98721.88;4472602;32;34041;-82
2024/01/17 11:39:16;;;;;;;;;;;;;;;8.71;43.68;98720.34;4475815;32;32324;-81
2024/01/17 11:41:44;;;;;;;;;;;;;;;9.37;42.45;98721.66;4480197;32;33524;-81
2024/01/17 11:44:13;;;;;;;;;;;;;;;9.20;42.78;98721.09;4474229;32;33044;-81
2024/01/17 11:46:40;;;;;;;;;;;;;;;9.50;42.12;98703.09;4470658;32;34961;-81
2024/01/17 11:49:09;;;;;;;;;;;;;;;9.71;41.79;98689.09;4461920;32;33686;-83
2024/01/17 11:51:37;;;;;;;;;;;;;;;8.85;45.17;98693.28;4458422;32;34962;-80
2024/01/17 11:54:04;;;;;;;;;;;;;;;8.92;44.58;98691.75;4456136;32;34132;-79
2024/01/17 11:56:32;;;;;;;;;;;;;;;9.55;42.75;98678.28;4458946;32;34603;-79
2024/01/17 11:59:05;;;;;;;;;;;;;;;8.94;43.37;98686.66;4462344;32;34971;-78
2024/01/17 12:01:32;;;;;;;;;;;;;;;9.10;43.42;98673.44;4464060;32;33828;-79
2024/01/17 12:03:59;;;;;;;;;;;;;;;9.34;43.13;98668.16;4469628;32;34951;-81
2024/01/17 12:06:26;;;;;;;;;;;;;;;9.54;47.04;98662.72;4482068;32;33976;-81
2024/01/17 12:08:56;;;;;;;;;;;;;;;8.76;44.46;98666.25;4469228;32;34139;-81
2024/01/17 12:11:24;;;;;;;;;;;;;;;9.67;43.22;98648.47;4473924;32;34540;-79
2024/01/17 12:13:52;;;;;;;;;;;;;;;9.79;42.74;98646.22;4472326;32;34063;-80
2024/01/17 12:16:23;;;;;;;;;;;;;;;9.70;41.66;98636.50;4475666;32;32936;-79
2024/01/17 12:18:58;;;;;;;;;;;;;;;9.78;42.00;98618.62;4459388;32;33465;-81
2024/01/17 12:21:26;;;;;;;;;;;;;;;9.51;42.22;98622.16;4479893;32;34274;-79
2024/01/17 12:23:54;;;;;;;;;;;;;;;9.48;42.56;98624.62;4475342;32;33895;-80
2024/01/17 12:26:21;;;;;;;;;;;;;;;9.82;41.93;98610.12;4452290;32;32703;-79
2024/01/17 12:28:49;;;;;;;;;;;;;;;9.68;42.21;98611.41;4471343;32;33581;-80
2024/01/17 12:31:16;;;;;;;;;;;;;;;9.79;41.90;98604.84;4473427;32;33706;-81
2024/01/17 12:33:44;;;;;;;;;;;;;;;10.51;69.50;98604.25;4456451;32;33161;-80
2024/01/17 12:36:12;;;;;;;;;;;;;;;10.51;55.33;98600.81;4472411;32;34401;-79
2024/01/17 12:38:39;;;;;;;;;;;;;;;10.79;50.57;98585.09;4459554;32;33576;-80
2024/01/17 12:41:10;;;;;;;;;;;;;;;10.66;47.88;98577.84;4480988;32;34034;-81
2024/01/17 12:43:37;;;;;;;;;;;;;;;10.75;43.41;98572.91;4476266;32;34252;-79
2024/01/17 12:46:06;;;;;;;;;;;;;;;10.77;41.52;98571.22;4462768;32;34131;-82
2024/01/17 12:48:35;;;;;;;;;;;;;;;10.93;40.83;98549.19;4467918;32;33210;-79
2024/01/17 12:51:07;;;;;;;;;;;;;;;10.38;41.44;98561.63;4468905;32;34234;-78
2024/01/17 12:53:39;;;;;;;;;;;;;;;10.84;40.74;98574.00;4466846;32;35003;-78
2024/01/17 12:56:09;;;;;;;;;;;;;;;11.01;40.01;98564.91;4462124;32;34902;-79
2024/01/17 12:58:36;;;;;;;;;;;;;;;11.09;39.71;98560.75;4467910;32;33492;-80
2024/01/17 13:01:04;;;;;;;;;;;;;;;10.90;40.17;98569.81;4470153;32;34344;-78